Terminal Aerodrome Forecast
Issued by NWS Wilmington, NC

Current Version | Previous Version | Graphics & Text | Print | Product List | Glossary Off
Versions: 1 2 3 4 5 6 7 8 9 10 11 12 13 14 15 16 17 18

000
FTUS42 KILM 220500
TAFMYR
TAF
KMYR 220525Z 2206/2306 34010G14KT P6SM SCT090
     FM221300 33014G19KT P6SM SCT045
     FM222300 33006KT P6SM SKC
      AMD LTD TO CLD VIS AND WIND TIL 221100=

USA.gov is the U.S. government's official web portal to all federal, state and local government web resources and services.